• Join FlightAware (Why Join?)
  • Login
  • US Flag 
07:04AM EDT


 

Airport Tracker/Info


-or-


 

Live Flight TrackerFlight Track Log ✈ SWA407 ✈ 17-Apr-2013 ✈ KSFO - KSAN

Flight Track Log - Related Links

Times and Time Zones

All times are in EDT time to prevent confusion due to time zone crossing. See the SWA407 flight status page for this flight to view local times or setup timezone preferences in your user account.

Time Position Orientation Groundspeed Altitude Reporting Facility
EDT Latitude Longitude Course Direction KTS MPH feet Rate Location/Type
12:51AM 37.6833 -122.3667 360° North 187 215 4,300  Level Northern Cal TRACON
12:52AM 37.6667 -122.4333 252° West 252 290 7,800 2,580 Climbing Northern Cal TRACON
12:53AM 37.5844 -122.4928 210° Southwest 302 348 10,000 1,920 Climbing Oakland Center
12:54AM 37.4944 -122.5308 199° South 348 400 12,000 3,120 Climbing Oakland Center
12:55AM 37.3947 -122.5381 183° South 359 413 16,300 4,200 Climbing Oakland Center
12:56AM 37.2633 -122.5481 183° South 386 444 20,500 3,600 Climbing Oakland Center
12:57AM 37.1478 -122.5553 183° South 410 472 23,700 2,880 Climbing Oakland Center
12:58AM 37.0461 -122.4722 147° Southeast 433 498 26,400 2,580 Climbing Oakland Center
01:00AM 36.9472 -122.3756 142° Southeast 447 514 29,000 2,340 Climbing Oakland Center
01:01AM 36.8442 -122.2767 142° Southeast 463 533 31,200 2,280 Climbing Oakland Center
01:02AM 36.7383 -122.1756 143° Southeast 475 547 33,600 2,280 Climbing Oakland Center
01:03AM 36.6322 -122.0733 142° Southeast 482 555 35,800 1,860 Climbing Oakland Center
01:04AM 36.5258 -121.9708 142° Southeast 485 558 37,400 1,320 Climbing Oakland Center
01:05AM 36.4167 -121.8700 143° Southeast 489 563 38,600 780 Climbing Oakland Center
01:06AM 36.2983 -121.7550 142° Southeast 496 571 39,000 180 Climbing Oakland Center
01:07AM 36.1897 -121.6539 143° Southeast 489 563 39,000  Level Oakland Center
01:08AM 36.1025 -121.5294 131° Southeast 479 551 39,000  Level Oakland Center
01:09AM 36.0178 -121.4011 129° Southeast 481 554 39,000  Level Oakland Center
01:10AM 35.9333 -121.2756 130° Southeast 477 549 39,000  Level Oakland Center
01:11AM 35.8486 -121.1497 130° Southeast 476 548 39,000  Level Oakland Center
01:12AM 35.7642 -121.0261 130° Southeast 474 545 39,000  Level Oakland Center
01:13AM 35.6806 -120.9022 130° Southeast 470 541 39,000  Level Oakland Center
01:14AM 35.5961 -120.7786 130° Southeast 473 544 39,000  Level Oakland Center
01:15AM 35.5119 -120.6558 130° Southeast 472 543 39,000  Level Oakland Center
01:16AM 35.4278 -120.5353 131° Southeast 471 542 39,000  Level Oakland Center
01:17AM 35.3386 -120.4056 130° Southeast 473 544 39,000  Level Oakland Center
01:18AM 35.2525 -120.2808 130° Southeast 477 549 39,000  Level Oakland Center
01:19AM 35.1625 -120.1506 130° Southeast 471 542 39,000  Level Oakland Center
01:20AM 35.0778 -120.0292 130° Southeast 471 542 39,000 -600 Level Oakland Center
01:21AM 34.9922 -119.9078 131° Southeast 473 544 37,900 -1,080 Descending Oakland Center
01:22AM 34.9047 -119.7819 130° Southeast 481 554 36,900 -960 Descending Oakland Center
01:23AM 34.8144 -119.6531 130° Southeast 494 568 36,000 -900 Descending Oakland Center
01:24AM 34.7236 -119.5267 131° Southeast 498 573 35,100 -540 Descending Oakland Center
01:25AM 34.6342 -119.3983 130° Southeast 499 574 35,000 -60 Descending Oakland Center
01:26AM 34.5247 -119.2508 132° Southeast 497 572 35,000  Level Los Angeles Center
01:27AM 34.4342 -119.1225 131° Southeast 500 575 35,000  Level Los Angeles Center
01:28AM 34.3247 -118.9714 131° Southeast 498 573 35,000  Level Los Angeles Center
01:29AM 34.2347 -118.8461 131° Southeast 495 570 35,000  Level Los Angeles Center
01:30AM 34.1428 -118.7217 132° Southeast 497 572 35,000  Level Los Angeles Center
01:31AM 34.0525 -118.5969 131° Southeast 494 568 35,000 -300 Level Los Angeles Center
01:32AM 33.9617 -118.4717 131° Southeast 494 568 34,500 -1,320 Descending Los Angeles Center
01:33AM 33.8672 -118.3458 132° Southeast 499 574 32,400 -1,920 Descending Los Angeles Center
01:34AM 33.7864 -118.2397 132° Southeast 492 566 30,300 -2,340 Descending Los Angeles Center
01:35AM 33.6614 -118.0836 134° Southeast 473 544 27,200 -2,640 Descending Los Angeles Center
01:36AM 33.5772 -117.9769 133° Southeast 452 520 25,000 -2,100 Descending Los Angeles Center
01:37AM 33.4956 -117.8731 133° Southeast 435 501 23,000 -2,160 Descending Los Angeles Center
01:38AM 33.4333 -117.8000 136° Southeast 413 475 21,300 -2,340 Descending Southern California TRACON
01:39AM 33.3500 -117.7000 135° Southeast 409 471 19,100 -2,100 Descending Southern California TRACON
01:39AM 33.3372 -117.6736 120° Southeast 414 476 18,500 -2,160 Descending Los Angeles Center
01:40AM 33.2833 -117.6167 139° Southeast 399 459 17,200 -1,800 Descending Southern California TRACON
01:42AM 33.0925 -117.4339 141° Southeast 374 430 13,100 -1,680 Descending Los Angeles Center
01:43AM 33.0083 -117.3769 150° Southeast 360 414 11,500 -1,500 Descending Los Angeles Center
01:45AM 32.9289 -117.3253 151° Southeast 342 394 10,100 -1,800 Descending Los Angeles Center
01:46AM 32.8581 -117.2492 138° Southeast 309 356 7,900 -2,160 Descending Los Angeles Center
01:47AM 32.8156 -117.1736 124° Southeast 288 331 5,800 -1,500 Descending Los Angeles Center
01:48AM 32.7808 -117.1053 121° Southeast 260 299 4,900 -1,020 Descending Los Angeles Center
01:49AM 32.7522 -117.0581 126° Southeast 216 249 3,800 -1,380 Descending Los Angeles Center
01:50AM 32.7117 -117.0889 213° Southwest 183 211 2,200 -1,380 Descending Los Angeles Center
01:51AM 32.7200 -117.1381 281° West 157 181 1,000 -1,080 Descending Los Angeles Center
01:52AM 32.7311 -117.1767 289° West 131 151 100 -900 Descending Los Angeles Center